sensor_id;sensor_type;location;lat;lon;timestamp;temperature;humidity
34279;DHT22;20538;51.528;9.942;2023-07-09T00:02:19;19.60;96.70
34279;DHT22;20538;51.528;9.942;2023-07-09T00:04:45;19.60;96.90
34279;DHT22;20538;51.528;9.942;2023-07-09T00:07:32;19.60;97.40
34279;DHT22;20538;51.528;9.942;2023-07-09T00:09:58;19.60;97.70
34279;DHT22;20538;51.528;9.942;2023-07-09T00:12:24;19.50;98.30
34279;DHT22;20538;51.528;9.942;2023-07-09T00:14:50;19.40;98.80
34279;DHT22;20538;51.528;9.942;2023-07-09T00:17:42;19.40;99.20
34279;DHT22;20538;51.528;9.942;2023-07-09T00:20:14;19.30;99.80
34279;DHT22;20538;51.528;9.942;2023-07-09T00:22:43;19.20;99.90
34279;DHT22;20538;51.528;9.942;2023-07-09T00:25:13;19.20;99.90
34279;DHT22;20538;51.528;9.942;2023-07-09T00:27:42;19.20;99.90
34279;DHT22;20538;51.528;9.942;2023-07-09T00:30:20;19.20;99.90
34279;DHT22;20538;51.528;9.942;2023-07-09T00:32:48;19.20;99.90
34279;DHT22;20538;51.528;9.942;2023-07-09T00:35:14;19.10;99.90
34279;DHT22;20538;51.528;9.942;2023-07-09T00:37:44;19.00;99.90
34279;DHT22;20538;51.528;9.942;2023-07-09T00:40:15;18.90;99.90
34279;DHT22;20538;51.528;9.942;2023-07-09T00:42:47;18.90;99.90
34279;DHT22;20538;51.528;9.942;2023-07-09T00:45:25;18.80;99.90
34279;DHT22;20538;51.528;9.942;2023-07-09T00:48:02;18.80;99.90
34279;DHT22;20538;51.528;9.942;2023-07-09T00:53:16;18.70;99.90
34279;DHT22;20538;51.528;9.942;2023-07-09T00:55:45;18.70;99.90
34279;DHT22;20538;51.528;9.942;2023-07-09T00:58:15;18.60;99.90
34279;DHT22;20538;51.528;9.942;2023-07-09T01:00:46;18.50;99.90
34279;DHT22;20538;51.528;9.942;2023-07-09T01:03:28;18.40;99.90
34279;DHT22;20538;51.528;9.942;2023-07-09T01:05:56;18.40;99.90
34279;DHT22;20538;51.528;9.942;2023-07-09T01:08:23;18.20;99.90
34279;DHT22;20538;51.528;9.942;2023-07-09T01:10:49;18.30;99.90
34279;DHT22;20538;51.528;9.942;2023-07-09T01:13:15;18.20;99.90
34279;DHT22;20538;51.528;9.942;2023-07-09T01:15:41;18.10;99.90
34279;DHT22;20538;51.528;9.942;2023-07-09T01:18:07;18.10;99.90
34279;DHT22;20538;51.528;9.942;2023-07-09T01:20:35;18.20;99.90
34279;DHT22;20538;51.528;9.942;2023-07-09T01:23:01;18.10;99.90
34279;DHT22;20538;51.528;9.942;2023-07-09T01:25:27;18.20;99.90
34279;DHT22;20538;51.528;9.942;2023-07-09T01:27:54;18.20;99.90
34279;DHT22;20538;51.528;9.942;2023-07-09T01:30:23;18.10;99.90
34279;DHT22;20538;51.528;9.942;2023-07-09T01:32:50;18.10;99.90
34279;DHT22;20538;51.528;9.942;2023-07-09T01:35:18;18.00;99.90
34279;DHT22;20538;51.528;9.942;2023-07-09T01:37:45;18.00;99.90
34279;DHT22;20538;51.528;9.942;2023-07-09T01:40:14;18.00;99.90
34279;DHT22;20538;51.528;9.942;2023-07-09T01:42:40;18.10;99.90
34279;DHT22;20538;51.528;9.942;2023-07-09T01:45:08;18.00;99.90
34279;DHT22;20538;51.528;9.942;2023-07-09T01:47:36;18.00;99.90
34279;DHT22;20538;51.528;9.942;2023-07-09T01:50:03;18.00;99.90
34279;DHT22;20538;51.528;9.942;2023-07-09T01:52:30;18.00;99.90
34279;DHT22;20538;51.528;9.942;2023-07-09T01:54:57;18.00;99.90
34279;DHT22;20538;51.528;9.942;2023-07-09T01:57:28;17.90;99.90
34279;DHT22;20538;51.528;9.942;2023-07-09T02:00:05;17.80;99.90
34279;DHT22;20538;51.528;9.942;2023-07-09T02:02:34;17.70;99.90
34279;DHT22;20538;51.528;9.942;2023-07-09T02:05:01;17.70;99.90
34279;DHT22;20538;51.528;9.942;2023-07-09T02:07:27;17.60;99.90
34279;DHT22;20538;51.528;9.942;2023-07-09T02:09:53;17.50;99.90
34279;DHT22;20538;51.528;9.942;2023-07-09T02:12:19;17.40;99.90
34279;DHT22;20538;51.528;9.942;2023-07-09T02:14:45;17.40;99.90
34279;DHT22;20538;51.528;9.942;2023-07-09T02:17:13;17.50;99.90
34279;DHT22;20538;51.528;9.942;2023-07-09T02:19:39;17.50;99.90
34279;DHT22;20538;51.528;9.942;2023-07-09T02:22:06;17.40;99.90
34279;DHT22;20538;51.528;9.942;2023-07-09T02:24:32;17.40;99.90
34279;DHT22;20538;51.528;9.942;2023-07-09T02:26:59;17.40;99.90
34279;DHT22;20538;51.528;9.942;2023-07-09T02:29:26;17.30;99.90
34279;DHT22;20538;51.528;9.942;2023-07-09T02:31:54;17.30;99.90
34279;DHT22;20538;51.528;9.942;2023-07-09T02:34:20;17.40;99.90
34279;DHT22;20538;51.528;9.942;2023-07-09T02:36:46;17.30;99.90
34279;DHT22;20538;51.528;9.942;2023-07-09T02:39:14;17.30;99.90
34279;DHT22;20538;51.528;9.942;2023-07-09T02:41:40;17.20;99.90
34279;DHT22;20538;51.528;9.942;2023-07-09T02:44:07;17.20;99.90
34279;DHT22;20538;51.528;9.942;2023-07-09T02:46:33;17.10;99.90
34279;DHT22;20538;51.528;9.942;2023-07-09T02:48:58;17.10;99.90
34279;DHT22;20538;51.528;9.942;2023-07-09T02:51:25;17.00;99.90
34279;DHT22;20538;51.528;9.942;2023-07-09T02:53:57;17.00;99.90
34279;DHT22;20538;51.528;9.942;2023-07-09T02:56:23;17.00;99.90
34279;DHT22;20538;51.528;9.942;2023-07-09T02:58:52;17.00;99.90
34279;DHT22;20538;51.528;9.942;2023-07-09T03:01:18;17.00;99.90
34279;DHT22;20538;51.528;9.942;2023-07-09T03:03:59;17.00;99.90
34279;DHT22;20538;51.528;9.942;2023-07-09T03:06:27;17.10;99.90
34279;DHT22;20538;51.528;9.942;2023-07-09T03:08:53;17.10;99.90
34279;DHT22;20538;51.528;9.942;2023-07-09T03:11:20;17.10;99.90
34279;DHT22;20538;51.528;9.942;2023-07-09T03:13:46;17.00;99.90
34279;DHT22;20538;51.528;9.942;2023-07-09T03:16:13;17.00;99.90
34279;DHT22;20538;51.528;9.942;2023-07-09T03:18:39;16.90;99.90
34279;DHT22;20538;51.528;9.942;2023-07-09T03:21:04;16.90;99.90
34279;DHT22;20538;51.528;9.942;2023-07-09T03:23:30;16.80;99.90
34279;DHT22;20538;51.528;9.942;2023-07-09T03:25:56;16.80;99.90
34279;DHT22;20538;51.528;9.942;2023-07-09T03:28:23;16.80;99.90
34279;DHT22;20538;51.528;9.942;2023-07-09T03:30:49;16.80;99.90
34279;DHT22;20538;51.528;9.942;2023-07-09T03:33:16;16.90;99.90
34279;DHT22;20538;51.528;9.942;2023-07-09T03:35:42;17.00;99.90
34279;DHT22;20538;51.528;9.942;2023-07-09T03:38:09;17.00;99.90
34279;DHT22;20538;51.528;9.942;2023-07-09T03:40:36;17.10;99.90
34279;DHT22;20538;51.528;9.942;2023-07-09T03:43:03;17.00;99.90
34279;DHT22;20538;51.528;9.942;2023-07-09T03:45:30;16.90;99.90
34279;DHT22;20538;51.528;9.942;2023-07-09T03:47:56;16.90;99.90
34279;DHT22;20538;51.528;9.942;2023-07-09T03:50:21;17.00;99.90
34279;DHT22;20538;51.528;9.942;2023-07-09T03:52:47;16.90;99.90
34279;DHT22;20538;51.528;9.942;2023-07-09T03:55:13;17.00;99.90
34279;DHT22;20538;51.528;9.942;2023-07-09T03:57:39;17.00;99.90
34279;DHT22;20538;51.528;9.942;2023-07-09T04:00:07;17.00;99.90
34279;DHT22;20538;51.528;9.942;2023-07-09T04:02:39;17.20;99.90
34279;DHT22;20538;51.528;9.942;2023-07-09T04:05:06;17.30;99.90
34279;DHT22;20538;51.528;9.942;2023-07-09T04:07:32;17.40;99.90
34279;DHT22;20538;51.528;9.942;2023-07-09T04:09:57;17.50;99.90
34279;DHT22;20538;51.528;9.942;2023-07-09T04:12:23;17.50;99.90
34279;DHT22;20538;51.528;9.942;2023-07-09T04:14:48;17.50;99.90
34279;DHT22;20538;51.528;9.942;2023-07-09T04:17:14;17.60;99.90
34279;DHT22;20538;51.528;9.942;2023-07-09T04:19:40;17.60;99.90
34279;DHT22;20538;51.528;9.942;2023-07-09T04:22:05;17.60;99.90
34279;DHT22;20538;51.528;9.942;2023-07-09T04:24:31;17.70;99.90
34279;DHT22;20538;51.528;9.942;2023-07-09T04:26:58;17.80;99.90
34279;DHT22;20538;51.528;9.942;2023-07-09T04:29:29;17.80;99.90
34279;DHT22;20538;51.528;9.942;2023-07-09T04:31:54;17.90;99.90
34279;DHT22;20538;51.528;9.942;2023-07-09T04:34:20;18.00;99.90
34279;DHT22;20538;51.528;9.942;2023-07-09T04:36:46;18.10;99.90
34279;DHT22;20538;51.528;9.942;2023-07-09T04:39:12;18.30;99.90
34279;DHT22;20538;51.528;9.942;2023-07-09T04:41:37;18.60;99.90
34279;DHT22;20538;51.528;9.942;2023-07-09T04:44:03;19.10;99.90
34279;DHT22;20538;51.528;9.942;2023-07-09T04:46:28;19.60;99.90
34279;DHT22;20538;51.528;9.942;2023-07-09T04:48:54;20.00;99.90
34279;DHT22;20538;51.528;9.942;2023-07-09T04:51:21;20.20;99.90
34279;DHT22;20538;51.528;9.942;2023-07-09T04:53:47;20.50;99.90
34279;DHT22;20538;51.528;9.942;2023-07-09T04:56:12;20.70;99.90
34279;DHT22;20538;51.528;9.942;2023-07-09T04:58:38;21.30;99.90
34279;DHT22;20538;51.528;9.942;2023-07-09T05:01:04;21.60;99.80
34279;DHT22;20538;51.528;9.942;2023-07-09T05:03:29;21.70;98.60
34279;DHT22;20538;51.528;9.942;2023-07-09T05:05:55;22.00;97.30
34279;DHT22;20538;51.528;9.942;2023-07-09T05:08:21;22.10;96.30
34279;DHT22;20538;51.528;9.942;2023-07-09T05:10:50;22.10;95.80
34279;DHT22;20538;51.528;9.942;2023-07-09T05:13:16;22.50;95.80
34279;DHT22;20538;51.528;9.942;2023-07-09T05:15:44;22.80;94.60
34279;DHT22;20538;51.528;9.942;2023-07-09T05:18:14;23.20;94.10
34279;DHT22;20538;51.528;9.942;2023-07-09T05:20:40;23.50;93.50
34279;DHT22;20538;51.528;9.942;2023-07-09T05:23:07;23.70;92.60
34279;DHT22;20538;51.528;9.942;2023-07-09T05:25:33;23.80;92.10
34279;DHT22;20538;51.528;9.942;2023-07-09T05:27:59;23.90;92.00
34279;DHT22;20538;51.528;9.942;2023-07-09T05:30:25;24.10;91.90
34279;DHT22;20538;51.528;9.942;2023-07-09T05:32:51;24.30;91.60
34279;DHT22;20538;51.528;9.942;2023-07-09T05:35:19;24.30;92.30
34279;DHT22;20538;51.528;9.942;2023-07-09T05:37:45;24.60;91.40
34279;DHT22;20538;51.528;9.942;2023-07-09T05:40:11;24.70;91.00
34279;DHT22;20538;51.528;9.942;2023-07-09T05:42:36;24.80;91.90
34279;DHT22;20538;51.528;9.942;2023-07-09T05:45:02;25.00;92.00
34279;DHT22;20538;51.528;9.942;2023-07-09T05:47:28;24.90;91.00
34279;DHT22;20538;51.528;9.942;2023-07-09T05:49:54;25.10;91.10
34279;DHT22;20538;51.528;9.942;2023-07-09T05:52:22;25.20;89.80
34279;DHT22;20538;51.528;9.942;2023-07-09T05:54:50;25.40;90.50
34279;DHT22;20538;51.528;9.942;2023-07-09T05:57:16;25.40;90.30
34279;DHT22;20538;51.528;9.942;2023-07-09T05:59:42;25.40;89.00
34279;DHT22;20538;51.528;9.942;2023-07-09T06:02:14;25.10;88.00
34279;DHT22;20538;51.528;9.942;2023-07-09T06:04:40;25.20;88.60
34279;DHT22;20538;51.528;9.942;2023-07-09T06:07:08;25.20;90.00
34279;DHT22;20538;51.528;9.942;2023-07-09T06:09:35;25.00;89.30
34279;DHT22;20538;51.528;9.942;2023-07-09T06:12:01;25.10;88.40
34279;DHT22;20538;51.528;9.942;2023-07-09T06:14:27;24.90;90.00
34279;DHT22;20538;51.528;9.942;2023-07-09T06:16:53;25.10;90.90
34279;DHT22;20538;51.528;9.942;2023-07-09T06:19:18;25.40;90.10
34279;DHT22;20538;51.528;9.942;2023-07-09T06:21:44;25.40;90.00
34279;DHT22;20538;51.528;9.942;2023-07-09T06:24:09;25.40;88.60
34279;DHT22;20538;51.528;9.942;2023-07-09T06:26:35;25.40;88.70
34279;DHT22;20538;51.528;9.942;2023-07-09T06:29:01;25.50;88.80
34279;DHT22;20538;51.528;9.942;2023-07-09T06:31:28;25.40;89.40
34279;DHT22;20538;51.528;9.942;2023-07-09T06:33:54;25.20;89.50
34279;DHT22;20538;51.528;9.942;2023-07-09T06:36:19;25.10;90.60
34279;DHT22;20538;51.528;9.942;2023-07-09T06:38:45;24.60;90.40
34279;DHT22;20538;51.528;9.942;2023-07-09T06:41:12;24.30;91.70
34279;DHT22;20538;51.528;9.942;2023-07-09T06:43:38;24.20;91.40
34279;DHT22;20538;51.528;9.942;2023-07-09T06:46:10;24.30;91.30
34279;DHT22;20538;51.528;9.942;2023-07-09T06:48:36;24.30;91.20
34279;DHT22;20538;51.528;9.942;2023-07-09T06:51:01;24.30;91.00
34279;DHT22;20538;51.528;9.942;2023-07-09T06:53:28;24.40;91.10
34279;DHT22;20538;51.528;9.942;2023-07-09T06:55:54;24.30;90.50
34279;DHT22;20538;51.528;9.942;2023-07-09T06:58:22;24.40;90.50
34279;DHT22;20538;51.528;9.942;2023-07-09T07:00:49;24.50;90.40
34279;DHT22;20538;51.528;9.942;2023-07-09T07:03:15;24.30;90.10
34279;DHT22;20538;51.528;9.942;2023-07-09T07:05:48;24.50;90.30
34279;DHT22;20538;51.528;9.942;2023-07-09T07:08:16;24.60;90.50
34279;DHT22;20538;51.528;9.942;2023-07-09T07:10:44;24.50;89.20
34279;DHT22;20538;51.528;9.942;2023-07-09T07:13:09;23.80;90.10
34279;DHT22;20538;51.528;9.942;2023-07-09T07:15:37;24.10;89.50
34279;DHT22;20538;51.528;9.942;2023-07-09T07:18:03;24.20;90.00
34279;DHT22;20538;51.528;9.942;2023-07-09T07:20:30;24.50;89.20
34279;DHT22;20538;51.528;9.942;2023-07-09T07:22:56;24.40;88.80
34279;DHT22;20538;51.528;9.942;2023-07-09T07:25:23;24.40;89.20
34279;DHT22;20538;51.528;9.942;2023-07-09T07:27:48;24.60;88.50
34279;DHT22;20538;51.528;9.942;2023-07-09T07:30:14;24.60;87.30
34279;DHT22;20538;51.528;9.942;2023-07-09T07:32:47;24.80;87.80
34279;DHT22;20538;51.528;9.942;2023-07-09T07:35:14;25.10;89.50
34279;DHT22;20538;51.528;9.942;2023-07-09T07:37:43;25.20;88.00
34279;DHT22;20538;51.528;9.942;2023-07-09T07:40:09;25.10;88.10
34279;DHT22;20538;51.528;9.942;2023-07-09T07:42:36;24.80;87.50
34279;DHT22;20538;51.528;9.942;2023-07-09T07:45:02;25.20;88.60
34279;DHT22;20538;51.528;9.942;2023-07-09T07:47:29;25.60;90.60
34279;DHT22;20538;51.528;9.942;2023-07-09T07:49:55;25.70;88.70
34279;DHT22;20538;51.528;9.942;2023-07-09T07:52:21;25.40;88.30
34279;DHT22;20538;51.528;9.942;2023-07-09T07:54:46;25.50;88.20
34279;DHT22;20538;51.528;9.942;2023-07-09T07:57:12;25.30;88.30
34279;DHT22;20538;51.528;9.942;2023-07-09T07:59:38;25.30;89.50
34279;DHT22;20538;51.528;9.942;2023-07-09T08:02:06;25.90;88.90
34279;DHT22;20538;51.528;9.942;2023-07-09T08:04:32;25.90;88.60
34279;DHT22;20538;51.528;9.942;2023-07-09T08:06:58;26.00;88.90
34279;DHT22;20538;51.528;9.942;2023-07-09T08:09:24;26.00;86.80
34279;DHT22;20538;51.528;9.942;2023-07-09T08:11:50;26.10;86.80
34279;DHT22;20538;51.528;9.942;2023-07-09T08:14:16;26.10;87.80
34279;DHT22;20538;51.528;9.942;2023-07-09T08:16:41;25.70;87.40
34279;DHT22;20538;51.528;9.942;2023-07-09T08:19:07;25.90;87.90
34279;DHT22;20538;51.528;9.942;2023-07-09T08:21:32;26.30;87.50
34279;DHT22;20538;51.528;9.942;2023-07-09T08:23:58;26.70;89.20
34279;DHT22;20538;51.528;9.942;2023-07-09T08:26:24;26.80;90.20
34279;DHT22;20538;51.528;9.942;2023-07-09T08:28:51;26.70;85.50
34279;DHT22;20538;51.528;9.942;2023-07-09T08:31:16;27.10;86.60
34279;DHT22;20538;51.528;9.942;2023-07-09T08:33:42;26.60;85.50
34279;DHT22;20538;51.528;9.942;2023-07-09T08:36:08;26.90;84.80
34279;DHT22;20538;51.528;9.942;2023-07-09T08:38:34;27.10;81.80
34279;DHT22;20538;51.528;9.942;2023-07-09T08:43:36;27.50;78.90
34279;DHT22;20538;51.528;9.942;2023-07-09T08:48:45;27.40;83.60
34279;DHT22;20538;51.528;9.942;2023-07-09T08:51:28;27.70;81.00
34279;DHT22;20538;51.528;9.942;2023-07-09T08:53:58;27.60;80.90
34279;DHT22;20538;51.528;9.942;2023-07-09T08:56:26;27.50;80.50
34279;DHT22;20538;51.528;9.942;2023-07-09T08:58:54;27.70;79.90
34279;DHT22;20538;51.528;9.942;2023-07-09T09:01:37;28.00;82.90
34279;DHT22;20538;51.528;9.942;2023-07-09T09:06:38;27.80;82.10
34279;DHT22;20538;51.528;9.942;2023-07-09T09:09:27;27.80;83.30
34279;DHT22;20538;51.528;9.942;2023-07-09T09:12:12;28.00;83.40
34279;DHT22;20538;51.528;9.942;2023-07-09T09:14:42;28.10;81.30
34279;DHT22;20538;51.528;9.942;2023-07-09T09:17:15;28.00;80.50
34279;DHT22;20538;51.528;9.942;2023-07-09T09:23:21;28.50;81.10
34279;DHT22;20538;51.528;9.942;2023-07-09T09:25:52;28.70;78.70
34279;DHT22;20538;51.528;9.942;2023-07-09T09:28:19;28.70;78.80
34279;DHT22;20538;51.528;9.942;2023-07-09T09:30:45;28.70;79.40
34279;DHT22;20538;51.528;9.942;2023-07-09T09:33:11;28.90;76.70
34279;DHT22;20538;51.528;9.942;2023-07-09T09:35:44;29.00;80.40
34279;DHT22;20538;51.528;9.942;2023-07-09T09:38:11;28.80;78.70
34279;DHT22;20538;51.528;9.942;2023-07-09T09:40:37;29.10;77.90
34279;DHT22;20538;51.528;9.942;2023-07-09T09:43:12;29.10;79.30
34279;DHT22;20538;51.528;9.942;2023-07-09T09:45:39;29.20;77.40
34279;DHT22;20538;51.528;9.942;2023-07-09T09:48:16;29.30;78.30
34279;DHT22;20538;51.528;9.942;2023-07-09T09:50:44;29.50;77.30
34279;DHT22;20538;51.528;9.942;2023-07-09T09:53:22;29.50;78.70
34279;DHT22;20538;51.528;9.942;2023-07-09T09:55:49;29.30;77.90
34279;DHT22;20538;51.528;9.942;2023-07-09T09:58:17;29.60;76.80
34279;DHT22;20538;51.528;9.942;2023-07-09T10:00:54;29.70;77.50
34279;DHT22;20538;51.528;9.942;2023-07-09T10:03:20;29.80;78.20
34279;DHT22;20538;51.528;9.942;2023-07-09T10:05:57;29.80;77.10
34279;DHT22;20538;51.528;9.942;2023-07-09T10:12:38;29.40;76.40
34279;DHT22;20538;51.528;9.942;2023-07-09T10:14:38;29.80;77.50
34279;DHT22;20538;51.528;9.942;2023-07-09T10:19:56;30.30;76.20
34279;DHT22;20538;51.528;9.942;2023-07-09T10:22:32;29.50;74.70
34279;DHT22;20538;51.528;9.942;2023-07-09T10:25:53;29.80;74.30
34279;DHT22;20538;51.528;9.942;2023-07-09T10:28:33;29.90;76.10
34279;DHT22;20538;51.528;9.942;2023-07-09T10:34:08;30.60;73.40
34279;DHT22;20538;51.528;9.942;2023-07-09T10:39:32;30.60;72.40
34279;DHT22;20538;51.528;9.942;2023-07-09T10:42:00;30.60;73.10
34279;DHT22;20538;51.528;9.942;2023-07-09T10:47:06;30.30;71.40
34279;DHT22;20538;51.528;9.942;2023-07-09T10:49:38;30.10;70.20
34279;DHT22;20538;51.528;9.942;2023-07-09T10:52:19;30.30;69.90
34279;DHT22;20538;51.528;9.942;2023-07-09T10:55:07;30.70;71.40
34279;DHT22;20538;51.528;9.942;2023-07-09T11:00:20;31.30;70.40
34279;DHT22;20538;51.528;9.942;2023-07-09T11:02:50;30.90;69.70
34279;DHT22;20538;51.528;9.942;2023-07-09T11:05:20;30.80;70.80
34279;DHT22;20538;51.528;9.942;2023-07-09T11:10:40;31.20;71.10
34279;DHT22;20538;51.528;9.942;2023-07-09T11:15:42;31.50;70.80
34279;DHT22;20538;51.528;9.942;2023-07-09T11:18:25;31.50;70.20
34279;DHT22;20538;51.528;9.942;2023-07-09T11:23:44;31.50;70.10
34279;DHT22;20538;51.528;9.942;2023-07-09T11:26:34;31.30;70.40
34279;DHT22;20538;51.528;9.942;2023-07-09T11:31:37;31.00;71.30
34279;DHT22;20538;51.528;9.942;2023-07-09T11:34:17;31.40;71.40
34279;DHT22;20538;51.528;9.942;2023-07-09T11:42:29;31.30;70.30
34279;DHT22;20538;51.528;9.942;2023-07-09T11:45:12;31.70;70.90
34279;DHT22;20538;51.528;9.942;2023-07-09T11:47:52;32.10;69.60
34279;DHT22;20538;51.528;9.942;2023-07-09T11:50:27;31.90;68.10
34279;DHT22;20538;51.528;9.942;2023-07-09T11:53:03;32.00;69.10
34279;DHT22;20538;51.528;9.942;2023-07-09T11:58:00;32.10;68.70
34279;DHT22;20538;51.528;9.942;2023-07-09T12:00:30;32.20;68.30
34279;DHT22;20538;51.528;9.942;2023-07-09T12:02:56;32.30;67.40
34279;DHT22;20538;51.528;9.942;2023-07-09T12:05:27;32.40;67.90
34279;DHT22;20538;51.528;9.942;2023-07-09T12:08:25;32.30;66.20
34279;DHT22;20538;51.528;9.942;2023-07-09T12:10:48;32.30;66.40
34279;DHT22;20538;51.528;9.942;2023-07-09T12:13:14;32.20;67.00
34279;DHT22;20538;51.528;9.942;2023-07-09T12:15:40;32.40;67.30
34279;DHT22;20538;51.528;9.942;2023-07-09T12:18:15;32.40;66.40
34279;DHT22;20538;51.528;9.942;2023-07-09T12:20:47;32.50;65.10
34279;DHT22;20538;51.528;9.942;2023-07-09T12:23:32;32.50;67.10
34279;DHT22;20538;51.528;9.942;2023-07-09T12:26:03;32.50;66.70
34279;DHT22;20538;51.528;9.942;2023-07-09T12:28:29;32.20;67.40
34279;DHT22;20538;51.528;9.942;2023-07-09T12:30:55;32.30;65.40
34279;DHT22;20538;51.528;9.942;2023-07-09T12:33:24;32.40;66.00
34279;DHT22;20538;51.528;9.942;2023-07-09T12:35:57;32.20;67.40
34279;DHT22;20538;51.528;9.942;2023-07-09T12:38:25;31.90;66.00
34279;DHT22;20538;51.528;9.942;2023-07-09T12:40:55;32.00;65.60
34279;DHT22;20538;51.528;9.942;2023-07-09T12:43:31;32.40;67.70
34279;DHT22;20538;51.528;9.942;2023-07-09T12:45:59;32.50;65.80
34279;DHT22;20538;51.528;9.942;2023-07-09T12:48:27;32.50;65.30
34279;DHT22;20538;51.528;9.942;2023-07-09T12:50:56;32.60;65.90
34279;DHT22;20538;51.528;9.942;2023-07-09T12:53:28;32.60;63.70
34279;DHT22;20538;51.528;9.942;2023-07-09T12:55:56;32.50;65.60
34279;DHT22;20538;51.528;9.942;2023-07-09T12:58:29;32.60;64.60
34279;DHT22;20538;51.528;9.942;2023-07-09T13:00:56;32.50;64.30
34279;DHT22;20538;51.528;9.942;2023-07-09T13:03:32;32.60;63.70
34279;DHT22;20538;51.528;9.942;2023-07-09T13:06:24;32.50;63.10
34279;DHT22;20538;51.528;9.942;2023-07-09T13:08:58;32.50;62.90
34279;DHT22;20538;51.528;9.942;2023-07-09T13:11:25;32.00;62.90
34279;DHT22;20538;51.528;9.942;2023-07-09T13:13:59;32.00;60.40
34279;DHT22;20538;51.528;9.942;2023-07-09T13:16:25;32.20;60.90
34279;DHT22;20538;51.528;9.942;2023-07-09T13:18:51;32.40;62.00
34279;DHT22;20538;51.528;9.942;2023-07-09T13:21:19;32.60;62.50
34279;DHT22;20538;51.528;9.942;2023-07-09T13:23:45;32.80;62.40
34279;DHT22;20538;51.528;9.942;2023-07-09T13:26:13;32.80;62.40
34279;DHT22;20538;51.528;9.942;2023-07-09T13:28:38;32.70;61.00
34279;DHT22;20538;51.528;9.942;2023-07-09T13:31:15;32.70;63.50
34279;DHT22;20538;51.528;9.942;2023-07-09T13:34:07;32.80;62.30
34279;DHT22;20538;51.528;9.942;2023-07-09T13:36:28;32.90;63.60
34279;DHT22;20538;51.528;9.942;2023-07-09T13:38:53;33.00;61.20
34279;DHT22;20538;51.528;9.942;2023-07-09T13:41:20;32.60;61.00
34279;DHT22;20538;51.528;9.942;2023-07-09T13:43:48;32.60;61.90
34279;DHT22;20538;51.528;9.942;2023-07-09T13:46:14;32.70;61.90
34279;DHT22;20538;51.528;9.942;2023-07-09T13:48:41;33.00;61.40
34279;DHT22;20538;51.528;9.942;2023-07-09T13:51:21;32.70;60.00
34279;DHT22;20538;51.528;9.942;2023-07-09T13:53:50;32.80;62.50
34279;DHT22;20538;51.528;9.942;2023-07-09T13:56:16;32.90;60.40
34279;DHT22;20538;51.528;9.942;2023-07-09T13:58:42;32.90;61.10
34279;DHT22;20538;51.528;9.942;2023-07-09T14:01:14;32.90;60.50
34279;DHT22;20538;51.528;9.942;2023-07-09T14:03:41;33.00;62.00
34279;DHT22;20538;51.528;9.942;2023-07-09T14:06:17;33.00;62.50
34279;DHT22;20538;51.528;9.942;2023-07-09T14:08:43;33.20;63.30
34279;DHT22;20538;51.528;9.942;2023-07-09T14:11:11;33.30;61.70
34279;DHT22;20538;51.528;9.942;2023-07-09T14:13:38;33.40;60.70
34279;DHT22;20538;51.528;9.942;2023-07-09T14:16:03;33.30;61.40
34279;DHT22;20538;51.528;9.942;2023-07-09T14:18:29;33.20;61.90
34279;DHT22;20538;51.528;9.942;2023-07-09T14:20:55;33.20;62.20
34279;DHT22;20538;51.528;9.942;2023-07-09T14:23:21;33.10;62.20
34279;DHT22;20538;51.528;9.942;2023-07-09T14:25:50;33.10;61.60
34279;DHT22;20538;51.528;9.942;2023-07-09T14:28:18;33.20;61.50
34279;DHT22;20538;51.528;9.942;2023-07-09T14:30:45;33.40;62.00
34279;DHT22;20538;51.528;9.942;2023-07-09T14:33:14;33.60;63.50
34279;DHT22;20538;51.528;9.942;2023-07-09T14:35:40;33.50;61.60
34279;DHT22;20538;51.528;9.942;2023-07-09T14:38:15;33.30;60.80
34279;DHT22;20538;51.528;9.942;2023-07-09T14:40:43;33.00;60.50
34279;DHT22;20538;51.528;9.942;2023-07-09T14:43:10;32.90;60.80
34279;DHT22;20538;51.528;9.942;2023-07-09T14:45:39;33.20;61.70
34279;DHT22;20538;51.528;9.942;2023-07-09T14:48:16;33.50;63.30
34279;DHT22;20538;51.528;9.942;2023-07-09T14:50:43;33.40;60.80
34279;DHT22;20538;51.528;9.942;2023-07-09T14:53:22;33.40;61.60
34279;DHT22;20538;51.528;9.942;2023-07-09T14:55:49;33.40;60.80
34279;DHT22;20538;51.528;9.942;2023-07-09T14:58:17;33.40;60.40
34279;DHT22;20538;51.528;9.942;2023-07-09T15:00:44;33.30;60.10
34279;DHT22;20538;51.528;9.942;2023-07-09T15:03:45;33.50;61.50
34279;DHT22;20538;51.528;9.942;2023-07-09T15:06:04;33.50;60.60
34279;DHT22;20538;51.528;9.942;2023-07-09T15:08:30;33.60;61.70
34279;DHT22;20538;51.528;9.942;2023-07-09T15:10:55;33.70;60.10
34279;DHT22;20538;51.528;9.942;2023-07-09T15:13:31;33.80;59.90
34279;DHT22;20538;51.528;9.942;2023-07-09T15:15:58;34.00;59.70
34279;DHT22;20538;51.528;9.942;2023-07-09T15:18:23;33.90;59.50
34279;DHT22;20538;51.528;9.942;2023-07-09T15:20:55;33.80;59.40
34279;DHT22;20538;51.528;9.942;2023-07-09T15:23:22;33.80;59.40
34279;DHT22;20538;51.528;9.942;2023-07-09T15:25:48;33.80;59.60
34279;DHT22;20538;51.528;9.942;2023-07-09T15:28:14;33.60;58.00
34279;DHT22;20538;51.528;9.942;2023-07-09T15:30:40;33.30;58.80
34279;DHT22;20538;51.528;9.942;2023-07-09T15:33:14;33.50;59.30
34279;DHT22;20538;51.528;9.942;2023-07-09T15:35:41;33.50;58.40
34279;DHT22;20538;51.528;9.942;2023-07-09T15:38:28;33.50;59.50
34279;DHT22;20538;51.528;9.942;2023-07-09T15:40:54;33.60;58.80
34279;DHT22;20538;51.528;9.942;2023-07-09T15:43:19;33.60;59.40
34279;DHT22;20538;51.528;9.942;2023-07-09T15:45:47;33.60;60.30
34279;DHT22;20538;51.528;9.942;2023-07-09T15:48:33;33.70;60.10
34279;DHT22;20538;51.528;9.942;2023-07-09T15:51:01;33.00;59.40
34279;DHT22;20538;51.528;9.942;2023-07-09T15:53:27;33.00;60.60
34279;DHT22;20538;51.528;9.942;2023-07-09T15:56:00;33.00;60.80
34279;DHT22;20538;51.528;9.942;2023-07-09T15:58:43;33.00;61.40
34279;DHT22;20538;51.528;9.942;2023-07-09T16:01:11;33.00;60.30
34279;DHT22;20538;51.528;9.942;2023-07-09T16:03:37;33.00;61.20
34279;DHT22;20538;51.528;9.942;2023-07-09T16:06:02;33.00;61.80
34279;DHT22;20538;51.528;9.942;2023-07-09T16:08:28;33.10;61.30
34279;DHT22;20538;51.528;9.942;2023-07-09T16:10:54;33.00;61.20
34279;DHT22;20538;51.528;9.942;2023-07-09T16:13:23;33.10;61.30
34279;DHT22;20538;51.528;9.942;2023-07-09T16:15:50;32.90;62.10
34279;DHT22;20538;51.528;9.942;2023-07-09T16:18:16;32.70;61.80
34279;DHT22;20538;51.528;9.942;2023-07-09T16:20:42;32.70;63.40
34279;DHT22;20538;51.528;9.942;2023-07-09T16:23:16;32.70;64.60
34279;DHT22;20538;51.528;9.942;2023-07-09T16:25:42;32.60;65.80
34279;DHT22;20538;51.528;9.942;2023-07-09T16:28:13;32.60;66.50
34279;DHT22;20538;51.528;9.942;2023-07-09T16:30:40;32.50;67.50
34279;DHT22;20538;51.528;9.942;2023-07-09T16:33:05;32.40;68.50